Logo AVAMET
Benvolgut visitant, si us plau, ingressa Recuperar contrasenya

Gandia Roís de Corella

Dades diàries. Acumulats / Últims 30 dies disponibles

Data Temperatura (°C) Humitat rel. (%) Pressió rel. (hPa) Vent (km/h) Precipitació
Mínima Mitjana Màxima Amplitud
tèrmica
Mínima Mitjana Màxima Mínima Mitjana Màxima Predom. Mitjana Ràfega
màxima
Total
(mm)
Índex-n
Mínima Mitjana Màxima Mínima Mitjana Màxima n
0 a 1
P0 max
mm 5'
Dades mensuals acumulades fins l'últim dia disponible
08/2019 19,7 22,9 27,6 27,9 28,1 33,4 40,0 20,3 20 70 95 1.008 1.015 1.021   3,0 41,8 46,6
Dades anuals acumulades fins l'últim dia disponible
2019 -0,2 13,4 27,6 18,7 12,6 24,4 40,0 40,2 14 65 97 993 1.017 1.036   3,4 74,0 342,6
Últims 30 dies disponibles
22-08-2019 19,7     25,0     29,6 9,9 49 72 90 1.019 1.020 1.021 S 2,4 19,3 0,0
21-08-2019 23,1     25,9     29,4 6,3 43 70 91 1.019 1.020 1.021 E 4,4 29,0 9,6 0,49 1,70
20-08-2019 23,6     26,0     30,9 7,3 63 81 90 1.015 1.017 1.021 S 4,7 41,8 0,0
19-08-2019 23,4     27,3     31,7 8,3 63 79 90 1.012 1.014 1.016 S 2,5 17,7 0,0
18-08-2019 23,0     29,4     40,0 17,0 23 70 92 1.009 1.012 1.014 SSO 2,4 17,7 0,0
17-08-2019 22,2     28,5     36,8 14,6 47 72 91 1.011 1.015 1.017 S 2,2 17,7 0,0
16-08-2019 22,4     27,8     34,9 12,5 42 71 91 1.013 1.017 1.019 SSE 3,0 24,1 0,0
15-08-2019 22,4     28,5     34,9 12,5 38 69 91 1.015 1.017 1.019 SSE 2,8 19,3 0,0
14-08-2019 20,7     27,6     34,7 14,0 41 65 89 1.015 1.018 1.020 S 2,8 22,5 0,0
13-08-2019 20,7     24,8     28,1 7,4 59 75 95 1.017 1.019 1.020 SSE 3,3 25,7 37,0 0,38 11,60
12-08-2019 24,3     26,7     29,6 5,3 52 74 90 1.012 1.015 1.018 SE 3,7 22,5 0,0
11-08-2019 26,5     29,6     35,4 8,9 50 74 87 1.011 1.013 1.015 SSE 2,8 19,3 0,0
10-08-2019 27,6     31,3     35,0 7,4 31 56 86 1.013 1.015 1.018 SE 3,8 22,5 0,0
09-08-2019 22,1     31,9     39,7 17,6 20 48 87 1.010 1.012 1.013 SSO 3,7 25,7 0,0
08-08-2019 23,0     31,2     37,8 14,8 23 55 91 1.010 1.012 1.013 S 3,3 22,5 0,0
07-08-2019 23,1     28,6     34,3 11,2 44 75 92 1.009 1.010 1.013 SSE 2,1 16,1 0,0
06-08-2019 25,2     29,5     36,6 11,4 42 74 89 1.008 1.012 1.014 SSE 2,3 19,3 0,0
05-08-2019 23,1     27,2     30,8 7,7 64 77 88 1.012 1.014 1.016 SSE 2,6 20,9 0,0
04-08-2019 21,6     27,7     33,6 12,0 54 69 85 1.011 1.014 1.015 S 2,7 17,7 0,0
03-08-2019 21,6     26,4     30,5 8,9 51 73 89 1.012 1.015 1.016 S 2,4 20,9 0,0
02-08-2019 21,2     25,8     30,6 9,4 53 73 86 1.014 1.015 1.016 S 2,5 20,9 0,0
01-08-2019 23,3     26,0     29,1 5,8 63 75 86 1.012 1.014 1.016 S 2,5 19,3 0,0
31-07-2019 23,7     26,1     29,2 5,5 62 78 88 1.015 1.016 1.018 SE 3,7 24,1 0,0
30-07-2019 22,6     27,0     32,1 9,5 41 73 82 1.010 1.013 1.016 SE 4,3 27,4 0,0
29-07-2019 22,1     29,5     36,7 14,6 30 57 85 1.007 1.010 1.012 SE 3,5 22,5 0,0
28-07-2019 22,6     27,6     31,8 9,2 37 54 75 1.008 1.009 1.011 SSE 4,2 25,7 0,0
27-07-2019 22,7     29,5     36,8 14,1 18 43 87 1.003 1.006 1.009 OSO 7,7 38,6 0,0
26-07-2019 21,7     27,4     32,4 10,7 43 67 82 1.008 1.010 1.013 SSE 2,5 19,3 0,0
25-07-2019 21,9     28,4     34,7 12,8 36 57 82 1.011 1.014 1.016 SSE 2,7 32,2 0,0
24-07-2019 21,0     27,8     33,8 12,8 43 60 82 1.014 1.016 1.017 S 2,3 16,1 0,0
Últims 13 mesos disponibles
07/2019 19,9 22,4 26,3 27,5 29,2 32,5 38,3 18,4 43 67 78 1.006 1.014 1.021 SSE 3,3 38,6 1,0
06/2019 12,4 17,1 22,2 23,3 21,9 28,9 35,9 23,5 34 65 80 1.009 1.015 1.022 S 3,1 45,1 0,0
05/2019 8,7 14,1 22,8 19,5 19,8 25,2 32,3 23,6 45 66 81 1.005 1.015 1.024 SSE 3,2 43,5 7,8
04/2019 8,3 11,6 15,1 16,1 14,5 21,0 29,9 21,6 38 66 95 1.000 1.013 1.025 SSO 4,6 53,1 234,0
03/2019 5,3 8,3 15,0 14,4 14,1 20,8 29,1 23,8 36 61 92 1.010 1.023 1.030 S 3,0 53,1 52,4
02/2019 4,2 6,5 11,6 12,0 14,1 18,3 24,1 19,9 32 65 83 995 1.025 1.034 SO 3,1 74,0 0,4
01/2019 -0,2 6,6 13,6 11,4 12,6 17,5 21,5 21,7 38 60 84 1.002 1.019 1.031 SO 4,1 57,9 0,4
12/2018 4,1 7,8 13,7 12,4 14,9 18,6 22,2 18,1 53 74 91 1.009 1.026 1.031 SO 1,4 53,1 22,8
Tots els anys disponibles
Temperatura (°C)
Humitat relativa (%)
Pressió (hPa)
Precipitació (mm)
Nota sobre les dades: s'avisa a l'usuari de la provisionalitat i no oficialitat d'aquestes dades
Logo AVAMET blanc
Web allotjada a Sollutia
Llicència de Creative CommonsLa web d'AVAMET i els seus continguts estan subjectes a una llicència de
Reconeixement - No Comercial - Compartir igual
Properes estacions: Altea - Club Nàutic d'Altea (Soci), Ares del Maestrat (Ajuntament Soci),      - - - - -      Últimes estacions: Catadau - Urb. Lloma Molina (Inforatge), Ontinyent - El Pilar (Soci) - - -